createdAt,value
2019-03-01T00:00:55.954Z,39.04
2019-03-01T00:03:30.445Z,39.02
2019-03-01T00:06:12.958Z,39.05
2019-03-01T00:09:43.584Z,39.05
2019-03-01T00:13:03.862Z,39.06
2019-03-01T00:16:10.453Z,39.08
2019-03-01T00:19:06.071Z,39.06
2019-03-01T00:22:29.895Z,39.07
2019-03-01T00:25:32.127Z,39.05
2019-03-01T00:29:04.796Z,39.11
2019-03-01T00:32:04.392Z,39.07
2019-03-01T00:34:54.740Z,39.08
2019-03-01T00:38:12.275Z,39.11
2019-03-01T00:41:20.977Z,39.12
2019-03-01T00:44:31.119Z,39.12
2019-03-01T00:47:01.557Z,39.12
2019-03-01T00:49:33.090Z,39.14
2019-03-01T00:52:03.562Z,39.13
2019-03-01T00:54:33.996Z,39.09
2019-03-01T00:57:04.434Z,39.08
2019-03-01T00:59:34.911Z,39.06
2019-03-01T01:02:05.337Z,39.09
2019-03-01T01:04:35.733Z,39.14
2019-03-01T01:07:05.975Z,39.10
2019-03-01T01:09:36.326Z,39.12
2019-03-01T01:12:06.960Z,39.11
2019-03-01T01:14:37.256Z,39.11
2019-03-01T01:17:07.662Z,39.11
2019-03-01T01:19:38.095Z,39.13
2019-03-01T01:22:08.784Z,39.11
2019-03-01T01:24:39.179Z,39.12
2019-03-01T01:27:09.587Z,39.08
2019-03-01T01:29:40.020Z,39.08
2019-03-01T01:32:10.386Z,39.11
2019-03-01T01:34:41.013Z,39.11
2019-03-01T01:37:11.509Z,39.09
2019-03-01T01:39:41.910Z,39.08
2019-03-01T01:42:12.381Z,39.12
2019-03-01T01:44:42.790Z,39.12
2019-03-01T01:47:13.152Z,39.06
2019-03-01T01:49:43.561Z,39.04
2019-03-01T01:52:14.038Z,39.07
2019-03-01T01:54:44.387Z,39.08
2019-03-01T01:57:17.793Z,39.10
2019-03-01T01:59:50.745Z,39.11
2019-03-01T02:02:21.067Z,39.13
2019-03-01T02:04:51.401Z,39.11
2019-03-01T02:07:22.083Z,39.12
2019-03-01T02:09:52.641Z,39.11
2019-03-01T02:12:23.191Z,39.11
2019-03-01T02:14:53.589Z,39.11
2019-03-01T02:17:24.033Z,39.12
2019-03-01T02:19:54.456Z,39.12
2019-03-01T02:22:24.731Z,39.12
2019-03-01T02:24:55.114Z,39.13
2019-03-01T02:27:27.472Z,39.08
2019-03-01T02:30:00.460Z,39.09
2019-03-01T02:32:40.497Z,39.14
2019-03-01T02:35:12.876Z,39.14
2019-03-01T02:37:44.465Z,39.13
2019-03-01T02:40:14.969Z,39.14
2019-03-01T02:42:45.280Z,39.11
2019-03-01T02:45:17.365Z,39.12
2019-03-01T02:47:47.759Z,39.13
2019-03-01T02:50:18.825Z,39.07
2019-03-01T02:52:49.412Z,39.06
2019-03-01T02:55:20.097Z,39.07
2019-03-01T02:57:50.562Z,39.07
2019-03-01T03:00:25.705Z,39.07
2019-03-01T03:02:59.005Z,39.13
2019-03-01T03:05:29.427Z,39.13
2019-03-01T03:08:01.777Z,39.14
2019-03-01T03:10:32.732Z,39.15
2019-03-01T03:13:10.766Z,39.15
2019-03-01T03:15:43.847Z,39.16
2019-03-01T03:18:14.522Z,39.17
2019-03-01T03:20:44.905Z,39.15
2019-03-01T03:23:15.407Z,39.12
2019-03-01T03:25:46.064Z,39.11
2019-03-01T03:28:16.339Z,39.06
2019-03-01T03:30:46.762Z,39.09
2019-03-01T03:33:16.976Z,39.14
2019-03-01T03:35:47.605Z,39.11
2019-03-01T03:38:18.057Z,39.11
2019-03-01T03:40:48.551Z,39.10
2019-03-01T03:43:19.056Z,39.12
2019-03-01T03:45:49.308Z,39.08
2019-03-01T03:48:20.038Z,39.12
2019-03-01T03:50:50.499Z,39.09
2019-03-01T03:53:20.880Z,39.08
2019-03-01T03:55:51.509Z,39.14
2019-03-01T03:58:21.884Z,39.14
2019-03-01T04:00:52.234Z,39.13
2019-03-01T04:03:22.540Z,39.09
2019-03-01T04:05:53.073Z,39.08
2019-03-01T04:08:23.631Z,39.09
2019-03-01T04:10:54.042Z,39.11
2019-03-01T04:13:24.334Z,39.07
2019-03-01T04:15:54.793Z,39.06
2019-03-01T04:18:26.318Z,39.09
2019-03-01T04:20:56.718Z,39.13
2019-03-01T04:23:27.197Z,39.12
2019-03-01T04:25:57.935Z,39.09
2019-03-01T04:28:28.304Z,39.12
2019-03-01T04:30:58.795Z,39.07
2019-03-01T04:33:29.224Z,39.07
2019-03-01T04:36:00.030Z,39.07
2019-03-01T04:38:30.501Z,39.04
2019-03-01T04:41:02.594Z,39.02
2019-03-01T04:43:33.078Z,39.01
2019-03-01T04:46:03.791Z,39.01
2019-03-01T04:48:34.317Z,39.03
2019-03-01T04:51:04.806Z,39.04
2019-03-01T04:53:35.143Z,39.03
2019-03-01T04:56:05.714Z,39.01
2019-03-01T04:58:38.095Z,39.01
2019-03-01T05:01:08.680Z,39.02
2019-03-01T05:03:39.410Z,39.03
2019-03-01T05:06:09.664Z,39.05
2019-03-01T05:08:40.184Z,39.08
2019-03-01T05:11:10.567Z,39.05
2019-03-01T05:13:41.099Z,39.07
2019-03-01T05:16:11.447Z,39.05
2019-03-01T05:18:41.779Z,39.05
2019-03-01T05:21:12.386Z,39.08
2019-03-01T05:23:42.942Z,39.10
2019-03-01T05:26:13.836Z,39.14
2019-03-01T05:28:44.145Z,39.15
2019-03-01T05:31:15.436Z,39.12
2019-03-01T05:33:45.893Z,39.13
2019-03-01T05:36:16.424Z,39.13
2019-03-01T05:38:47.199Z,39.12
2019-03-01T05:41:18.669Z,39.13
2019-03-01T05:43:49.149Z,39.15
2019-03-01T05:46:19.533Z,39.10
2019-03-01T05:48:49.821Z,39.10
2019-03-01T05:51:20.238Z,39.14
2019-03-01T05:53:50.739Z,39.16
2019-03-01T05:56:21.130Z,39.15
2019-03-01T05:59:12.574Z,39.15
2019-03-01T06:02:12.298Z,39.18
2019-03-01T06:04:47.470Z,39.27
2019-03-01T06:07:45.975Z,39.32
2019-03-01T06:10:52.748Z,39.45
2019-03-01T06:13:52.803Z,39.59
2019-03-01T06:16:47.242Z,39.63
2019-03-01T06:19:39.067Z,39.70
2019-03-01T06:22:42.913Z,39.73
2019-03-01T06:26:07.689Z,39.78
2019-03-01T06:28:49.332Z,39.84
2019-03-01T06:32:15.451Z,39.86
2019-03-01T06:35:36.905Z,39.81
2019-03-01T06:39:19.708Z,39.83
2019-03-01T06:42:29.506Z,39.89
2019-03-01T06:45:50.325Z,39.85
2019-03-01T06:48:30.816Z,39.84
2019-03-01T06:51:17.271Z,39.84
2019-03-01T06:53:47.699Z,39.75
2019-03-01T06:56:18.043Z,39.75
2019-03-01T06:58:51.115Z,39.70
2019-03-01T07:01:28.800Z,39.66
2019-03-01T07:04:07.520Z,39.64
2019-03-01T07:06:37.929Z,39.61
2019-03-01T07:09:08.927Z,39.57
2019-03-01T07:11:39.351Z,39.55
2019-03-01T07:14:12.499Z,39.52
2019-03-01T07:16:42.951Z,39.52
2019-03-01T07:19:13.413Z,39.45
2019-03-01T07:21:43.879Z,39.42
2019-03-01T07:24:14.375Z,39.39
2019-03-01T07:26:44.982Z,39.35
2019-03-01T07:29:15.446Z,39.35
2019-03-01T07:31:45.896Z,39.32
2019-03-01T07:34:16.417Z,39.31
2019-03-01T07:36:49.343Z,39.28
2019-03-01T07:39:20.067Z,39.25
2019-03-01T07:41:50.465Z,39.23
2019-03-01T07:44:21.010Z,39.19
2019-03-01T07:46:53.270Z,39.19
2019-03-01T07:49:23.661Z,39.16
2019-03-01T07:51:54.035Z,39.13
2019-03-01T07:54:24.526Z,39.15
2019-03-01T07:56:55.139Z,39.11
2019-03-01T07:59:25.475Z,39.05
2019-03-01T08:02:00.814Z,39.05
2019-03-01T08:04:30.931Z,39.04
2019-03-01T08:07:03.684Z,39.01
2019-03-01T08:09:36.081Z,39.02
2019-03-01T08:12:07.288Z,39.00
2019-03-01T08:14:38.529Z,39.00
2019-03-01T08:17:10.022Z,39.01
2019-03-01T08:19:40.411Z,38.95
2019-03-01T08:22:10.744Z,38.92
2019-03-01T08:24:42.836Z,38.91
2019-03-01T08:27:15.205Z,38.88
2019-03-01T08:29:45.627Z,38.86
2019-03-01T08:32:16.309Z,38.84
2019-03-01T08:34:49.869Z,38.83
2019-03-01T08:37:19.597Z,38.83
2019-03-01T08:39:49.975Z,38.77
2019-03-01T08:42:20.438Z,38.77
2019-03-01T08:44:51.127Z,38.75
2019-03-01T08:47:24.522Z,38.77
2019-03-01T08:49:57.027Z,38.81
2019-03-01T08:52:27.572Z,38.76
2019-03-01T08:55:00.048Z,38.75
2019-03-01T08:57:30.291Z,38.73
2019-03-01T09:00:00.808Z,38.74
2019-03-01T09:02:32.703Z,38.72
2019-03-01T09:05:05.245Z,38.74
2019-03-01T09:10:08.350Z,38.68
2019-03-01T09:12:39.216Z,38.67
2019-03-01T09:15:11.632Z,38.66
2019-03-01T09:17:42.107Z,38.65
2019-03-01T09:20:14.271Z,38.63
2019-03-01T09:25:16.816Z,38.65
2019-03-01T09:27:47.303Z,38.65
2019-03-01T09:30:19.898Z,38.56
2019-03-01T09:32:51.959Z,36.65
2019-03-01T09:35:42.778Z,35.11
2019-03-01T09:38:11.894Z,36.17
2019-03-01T09:40:42.112Z,34.54
2019-03-01T09:43:12.393Z,33.35
2019-03-01T09:45:45.725Z,34.12
2019-03-01T09:48:14.612Z,34.66
2019-03-01T09:50:46.033Z,34.75
2019-03-01T09:53:16.323Z,35.07
2019-03-01T09:55:46.660Z,35.31
2019-03-01T09:58:16.820Z,35.58
2019-03-01T10:00:56.155Z,35.54
2019-03-01T10:03:22.176Z,33.59
2019-03-01T10:05:52.744Z,33.57
2019-03-01T10:08:23.369Z,34.04
2019-03-01T10:10:53.980Z,34.23
2019-03-01T10:13:24.267Z,34.42
2019-03-01T10:15:54.833Z,34.50
2019-03-01T10:18:25.522Z,34.39
2019-03-01T10:20:56.062Z,34.21
2019-03-01T10:23:26.752Z,34.06
2019-03-01T10:25:57.635Z,34.17
2019-03-01T10:28:30.043Z,34.33
2019-03-01T10:31:00.206Z,34.47
2019-03-01T10:36:01.631Z,34.75
2019-03-01T10:38:31.849Z,35.06
2019-03-01T10:41:02.012Z,35.37
2019-03-01T10:43:32.251Z,35.48
2019-03-01T10:46:02.553Z,35.57
2019-03-01T10:48:33.191Z,35.64
2019-03-01T10:51:03.405Z,35.75
2019-03-01T10:53:33.790Z,35.82
2019-03-01T10:56:04.266Z,35.92
2019-03-01T10:58:34.626Z,35.95
2019-03-01T11:01:05.718Z,35.97
2019-03-01T11:03:37.244Z,36.01
2019-03-01T11:06:07.612Z,36.02
2019-03-01T11:08:38.358Z,36.11
2019-03-01T11:11:10.249Z,36.15
2019-03-01T11:13:40.716Z,36.19
2019-03-01T11:16:11.372Z,36.29
2019-03-01T11:18:41.905Z,36.47
2019-03-01T11:21:12.952Z,36.61
2019-03-01T11:23:43.603Z,36.75
2019-03-01T11:26:14.417Z,36.79
2019-03-01T11:28:44.940Z,36.83
2019-03-01T11:31:15.599Z,36.92
2019-03-01T11:33:46.489Z,36.86
2019-03-01T11:36:17.078Z,36.74
2019-03-01T11:38:47.610Z,36.83
2019-03-01T11:41:18.075Z,36.75
2019-03-01T11:43:50.537Z,36.96
2019-03-01T11:46:21.069Z,37.09
2019-03-01T11:48:54.744Z,37.16
2019-03-01T11:51:27.725Z,37.21
2019-03-01T11:53:57.942Z,37.28
2019-03-01T11:56:28.865Z,37.31
2019-03-01T11:58:59.570Z,37.41
2019-03-01T12:01:30.067Z,37.30
2019-03-01T12:04:00.725Z,37.11
2019-03-01T12:06:31.216Z,37.32
2019-03-01T12:09:01.593Z,37.39
2019-03-01T12:11:33.876Z,38.01
2019-03-01T12:14:04.483Z,38.31
2019-03-01T12:16:35.071Z,38.89
2019-03-01T12:19:05.548Z,39.08
2019-03-01T12:21:36.131Z,38.90
2019-03-01T12:24:06.822Z,38.86
2019-03-01T12:26:37.607Z,38.91
2019-03-01T12:29:08.298Z,39.03
2019-03-01T12:31:38.981Z,39.12
2019-03-01T12:34:10.148Z,39.23
2019-03-01T12:36:40.911Z,39.72
2019-03-01T12:39:11.693Z,39.95
2019-03-01T12:41:42.192Z,40.00
2019-03-01T12:44:12.691Z,40.10
2019-03-01T12:46:43.736Z,40.06
2019-03-01T12:49:14.655Z,40.06
2019-03-01T12:51:45.256Z,40.07
2019-03-01T12:54:15.987Z,40.04
2019-03-01T12:56:46.791Z,40.11
2019-03-01T12:59:17.523Z,40.08
2019-03-01T13:01:49.253Z,40.12
2019-03-01T13:04:20.159Z,40.14
2019-03-01T13:06:50.834Z,40.08
2019-03-01T13:09:23.426Z,39.93
2019-03-01T13:11:53.736Z,39.78
2019-03-01T13:14:24.491Z,39.72
2019-03-01T13:16:55.083Z,39.73
2019-03-01T13:19:26.991Z,39.72
2019-03-01T13:21:57.477Z,39.73
2019-03-01T13:24:27.933Z,39.72
2019-03-01T13:26:58.726Z,39.67
2019-03-01T13:29:29.697Z,39.57
2019-03-01T13:32:00.140Z,39.51
2019-03-01T13:34:30.736Z,39.55
2019-03-01T13:37:01.296Z,39.61
2019-03-01T13:39:36.552Z,40.47
2019-03-01T13:42:10.300Z,40.68
2019-03-01T13:44:39.784Z,40.78
2019-03-01T13:47:11.097Z,40.73
2019-03-01T13:49:41.697Z,40.81
2019-03-01T13:52:12.505Z,40.73
2019-03-01T13:54:45.478Z,41.54
2019-03-01T13:57:15.909Z,41.83
2019-03-01T13:59:46.379Z,42.09
2019-03-01T14:02:16.977Z,41.61
2019-03-01T14:04:47.772Z,41.38
2019-03-01T14:07:18.577Z,41.29
2019-03-01T14:09:49.174Z,41.19
2019-03-01T14:12:20.155Z,41.20
2019-03-01T14:14:50.629Z,41.36
2019-03-01T14:17:24.203Z,41.19
2019-03-01T14:19:53.177Z,41.15
2019-03-01T14:22:23.657Z,41.17
2019-03-01T14:24:54.041Z,40.99
2019-03-01T14:27:26.319Z,41.01
2019-03-01T14:29:56.457Z,40.97
2019-03-01T14:32:26.691Z,41.08
2019-03-01T14:34:57.069Z,41.18
2019-03-01T14:37:27.570Z,41.07
2019-03-01T14:39:59.055Z,40.95
2019-03-01T14:42:29.634Z,41.03
2019-03-01T14:45:00.043Z,41.00
2019-03-01T14:47:32.810Z,41.20
2019-03-01T14:50:02.499Z,41.17
2019-03-01T14:52:32.818Z,40.97
2019-03-01T14:55:03.223Z,40.91
2019-03-01T14:57:37.200Z,40.95
2019-03-01T15:00:28.388Z,41.04
2019-03-01T15:03:27.788Z,41.10
2019-03-01T15:05:58.318Z,41.21
2019-03-01T15:08:28.724Z,41.28
2019-03-01T15:11:04.286Z,41.35
2019-03-01T15:13:34.747Z,41.58
2019-03-01T15:16:07.229Z,41.70
2019-03-01T15:18:38.267Z,42.04
2019-03-01T15:21:09.196Z,41.98
2019-03-01T15:23:39.580Z,42.24
2019-03-01T15:26:09.851Z,42.36
2019-03-01T15:28:55.300Z,42.66
2019-03-01T15:31:26.326Z,42.77
2019-03-01T15:33:58.385Z,42.83
2019-03-01T15:36:28.674Z,42.93
2019-03-01T15:39:00.731Z,43.13
2019-03-01T15:41:50.005Z,42.84
2019-03-01T15:44:23.860Z,42.83
2019-03-01T15:46:54.510Z,43.00
2019-03-01T15:49:24.997Z,43.21
2019-03-01T15:51:55.386Z,43.62
2019-03-01T15:54:25.878Z,43.70
2019-03-01T15:56:56.245Z,43.41
2019-03-01T15:59:26.822Z,43.25
2019-03-01T16:01:57.284Z,43.15
2019-03-01T16:04:30.390Z,43.09
2019-03-01T16:06:59.914Z,43.08
2019-03-01T16:09:30.403Z,43.03
2019-03-01T16:12:00.829Z,42.97
2019-03-01T16:14:32.369Z,42.90
2019-03-01T16:17:02.905Z,43.01
2019-03-01T16:19:37.866Z,42.86
2019-03-01T16:22:08.363Z,43.03
2019-03-01T16:24:41.492Z,42.93
2019-03-01T16:27:15.170Z,42.99
2019-03-01T16:29:44.449Z,42.93
2019-03-01T16:32:14.932Z,42.88
2019-03-01T16:34:45.767Z,42.87
2019-03-01T16:37:16.267Z,42.95
2019-03-01T16:39:47.923Z,42.97
2019-03-01T16:42:18.910Z,43.01
2019-03-01T16:44:49.520Z,42.95
2019-03-01T16:47:19.988Z,42.90
2019-03-01T16:49:50.696Z,42.83
2019-03-01T16:52:21.121Z,42.73
2019-03-01T16:54:52.768Z,42.67
2019-03-01T16:57:25.906Z,42.63
2019-03-01T16:59:57.363Z,42.49
2019-03-01T17:02:27.808Z,42.41
2019-03-01T17:05:03.604Z,42.27
2019-03-01T17:07:33.185Z,42.25
2019-03-01T17:10:03.964Z,42.10
2019-03-01T17:12:34.459Z,41.99
2019-03-01T17:15:04.969Z,42.08
2019-03-01T17:17:36.853Z,42.03
2019-03-01T17:20:09.518Z,41.88
2019-03-01T17:22:40.067Z,41.67
2019-03-01T17:25:11.063Z,41.38
2019-03-01T17:27:43.482Z,41.39
2019-03-01T17:30:17.837Z,41.43
2019-03-01T17:32:49.599Z,41.41
2019-03-01T17:35:20.161Z,41.23
2019-03-01T17:37:50.523Z,41.31
2019-03-01T17:40:21.937Z,41.40
2019-03-01T17:42:53.164Z,41.33
2019-03-01T17:45:25.351Z,41.39
2019-03-01T17:47:55.926Z,41.51
2019-03-01T17:50:26.440Z,41.47
2019-03-01T17:52:56.868Z,41.45
2019-03-01T17:55:27.272Z,41.48
2019-03-01T17:57:57.692Z,40.58
2019-03-01T18:00:34.378Z,34.61
2019-03-01T18:03:04.908Z,36.19
2019-03-01T18:05:37.043Z,38.27
2019-03-01T18:08:07.593Z,38.83
2019-03-01T18:10:37.989Z,39.25
2019-03-01T18:13:08.819Z,39.35
2019-03-01T18:15:39.337Z,39.46
2019-03-01T18:18:12.114Z,39.52
2019-03-01T18:20:43.009Z,39.58
2019-03-01T18:23:13.461Z,39.63
2019-03-01T18:25:43.931Z,39.62
2019-03-01T18:28:14.394Z,39.62
2019-03-01T18:30:44.817Z,39.68
2019-03-01T18:33:16.840Z,39.71
2019-03-01T18:35:52.441Z,39.67
2019-03-01T18:38:22.925Z,39.64
2019-03-01T18:40:53.377Z,39.85
2019-03-01T18:43:23.783Z,40.02
2019-03-01T18:45:55.369Z,40.07
2019-03-01T18:48:25.780Z,40.23
2019-03-01T18:50:56.660Z,40.29
2019-03-01T18:53:28.636Z,40.44
2019-03-01T18:55:59.640Z,40.46
2019-03-01T18:58:30.342Z,40.45
2019-03-01T19:01:02.407Z,40.41
2019-03-01T19:03:33.039Z,40.44
2019-03-01T19:06:04.728Z,40.51
2019-03-01T19:08:36.486Z,40.57
2019-03-01T19:11:07.106Z,40.62
2019-03-01T19:13:37.589Z,40.65
2019-03-01T19:16:10.003Z,40.72
2019-03-01T19:18:42.179Z,40.75
2019-03-01T19:21:14.034Z,40.81
2019-03-01T19:23:45.251Z,40.83
2019-03-01T19:26:15.939Z,40.90
2019-03-01T19:28:46.923Z,40.92
2019-03-01T19:31:17.403Z,40.98
2019-03-01T19:33:47.868Z,41.04
2019-03-01T19:36:18.476Z,40.98
2019-03-01T19:38:48.976Z,41.01
2019-03-01T19:41:20.014Z,41.00
2019-03-01T19:43:57.464Z,40.87
2019-03-01T19:46:23.856Z,40.72
2019-03-01T19:48:54.289Z,40.63
2019-03-01T19:51:24.742Z,40.57
2019-03-01T19:53:57.428Z,40.53
2019-03-01T19:56:27.557Z,40.50
2019-03-01T19:58:59.385Z,40.52
2019-03-01T20:01:30.034Z,40.45
2019-03-01T20:04:00.440Z,40.49
2019-03-01T20:06:31.035Z,40.45
2019-03-01T20:09:04.253Z,40.44
2019-03-01T20:11:35.314Z,40.46
2019-03-01T20:14:07.120Z,40.33
2019-03-01T20:16:37.541Z,40.32
2019-03-01T20:19:08.086Z,40.30
2019-03-01T20:21:41.332Z,40.28
2019-03-01T20:24:10.803Z,40.33
2019-03-01T20:26:41.293Z,40.32
2019-03-01T20:29:13.217Z,40.27
2019-03-01T20:31:43.679Z,40.24
2019-03-01T20:34:14.065Z,40.27
2019-03-01T20:36:44.574Z,40.27
2019-03-01T20:39:15.414Z,39.48
2019-03-01T20:41:46.930Z,39.44
2019-03-01T20:44:19.739Z,39.54
2019-03-01T20:46:50.406Z,39.53
2019-03-01T20:49:20.936Z,39.70
2019-03-01T20:51:52.394Z,39.70
2019-03-01T20:54:25.771Z,39.77
2019-03-01T20:56:57.480Z,39.76
2019-03-01T20:59:28.232Z,39.61
2019-03-01T21:01:58.672Z,39.56
2019-03-01T21:04:30.051Z,39.45
2019-03-01T21:07:00.764Z,39.46
2019-03-01T21:09:31.921Z,39.40
2019-03-01T21:12:02.927Z,39.27
2019-03-01T21:14:36.141Z,39.33
2019-03-01T21:17:09.982Z,39.47
2019-03-01T21:19:43.759Z,39.48
2019-03-01T21:22:16.691Z,39.55
2019-03-01T21:24:51.100Z,39.48
2019-03-01T21:27:25.926Z,39.41
2019-03-01T21:29:58.518Z,39.34
2019-03-01T21:32:34.142Z,39.28
2019-03-01T21:35:10.469Z,39.27
2019-03-01T21:37:44.219Z,39.27
2019-03-01T21:40:14.802Z,39.23
2019-03-01T21:42:45.436Z,39.22
2019-03-01T21:45:21.568Z,39.23
2019-03-01T21:47:50.178Z,39.28
2019-03-01T21:50:20.561Z,39.35
2019-03-01T21:52:51.099Z,39.32
2019-03-01T21:55:24.802Z,39.35
2019-03-01T21:57:53.674Z,39.26
2019-03-01T22:00:29.647Z,39.23
2019-03-01T22:02:59.083Z,39.18
2019-03-01T22:05:29.526Z,39.14
2019-03-01T22:08:01.530Z,39.16
2019-03-01T22:10:35.629Z,39.09
2019-03-01T22:13:07.352Z,39.12
2019-03-01T22:16:00.987Z,39.05
2019-03-01T22:18:32.664Z,39.06
2019-03-01T22:21:03.272Z,39.06
2019-03-01T22:23:34.526Z,39.05
2019-03-01T22:26:05.283Z,39.15
2019-03-01T22:28:36.197Z,39.14
2019-03-01T22:31:09.197Z,39.08
2019-03-01T22:33:39.983Z,39.12
2019-03-01T22:36:10.445Z,39.22
2019-03-01T22:38:42.351Z,39.45
2019-03-01T22:41:13.360Z,39.45
2019-03-01T22:43:44.271Z,39.83
2019-03-01T22:46:14.980Z,40.32
2019-03-01T22:48:48.942Z,41.27
2019-03-01T22:51:18.076Z,41.08
2019-03-01T22:53:49.496Z,41.41
2019-03-01T22:56:22.463Z,41.80
2019-03-01T22:58:53.074Z,42.05
2019-03-01T23:01:44.553Z,42.47
2019-03-01T23:04:15.039Z,42.64
2019-03-01T23:06:47.607Z,43.68
2019-03-01T23:09:18.552Z,43.80
2019-03-01T23:11:49.144Z,43.90
2019-03-01T23:14:19.660Z,44.15
2019-03-01T23:16:50.790Z,44.35
2019-03-01T23:19:22.433Z,44.40
2019-03-01T23:21:53.193Z,44.39
2019-03-01T23:24:23.703Z,44.46
2019-03-01T23:26:56.755Z,44.29
2019-03-01T23:29:26.377Z,44.39
2019-03-01T23:31:57.272Z,44.17
2019-03-01T23:34:27.916Z,44.27
2019-03-01T23:37:00.684Z,44.17
2019-03-01T23:39:30.848Z,44.03
2019-03-01T23:42:04.177Z,44.01
2019-03-01T23:44:34.920Z,43.92
2019-03-01T23:47:06.406Z,43.94
2019-03-01T23:49:37.016Z,43.83
2019-03-01T23:52:10.114Z,43.87
2019-03-01T23:54:44.229Z,43.74
2019-03-01T23:57:13.891Z,43.68
2019-03-01T23:59:44.588Z,43.59
